createdAt,value
2022-09-02T00:00:20.638Z,63.58
2022-09-02T00:03:27.314Z,61.33
2022-09-02T00:06:31.668Z,59.77
2022-09-02T00:09:34.700Z,58.93
2022-09-02T00:12:37.391Z,55.60
2022-09-02T00:15:40.490Z,56.70
2022-09-02T00:18:45.756Z,56.03
2022-09-02T00:21:49.401Z,56.82
2022-09-02T00:24:52.092Z,54.13
2022-09-02T00:27:56.153Z,54.69
2022-09-02T00:30:59.967Z,56.36
2022-09-02T00:34:04.897Z,56.10
2022-09-02T00:37:07.638Z,57.28
2022-09-02T00:40:12.058Z,56.33
2022-09-02T00:43:27.155Z,58.16
2022-09-02T00:46:32.277Z,58.69
2022-09-02T00:49:38.925Z,58.01
2022-09-02T00:52:51.054Z,59.14
2022-09-02T00:55:53.744Z,59.17
2022-09-02T00:58:58.036Z,59.72
2022-09-02T01:02:01.117Z,59.48
2022-09-02T01:05:08.219Z,60.70
2022-09-02T01:08:16.172Z,61.24
2022-09-02T01:11:21.464Z,61.64
2022-09-02T01:14:24.393Z,59.64
2022-09-02T01:17:34.447Z,60.43
2022-09-02T01:20:37.199Z,58.33
2022-09-02T01:23:41.763Z,58.47
2022-09-02T01:26:45.592Z,58.33
2022-09-02T01:29:54.784Z,60.00
2022-09-02T01:32:57.781Z,58.51
2022-09-02T01:36:04.858Z,57.89
2022-09-02T01:39:09.248Z,57.53
2022-09-02T01:42:13.218Z,57.51
2022-09-02T01:45:17.477Z,58.08
2022-09-02T01:48:22.071Z,57.27
2022-09-02T01:51:24.931Z,58.09
2022-09-02T01:54:28.357Z,59.44
2022-09-02T01:57:32.219Z,57.41
2022-09-02T02:00:36.160Z,59.59
2022-09-02T02:03:39.181Z,60.44
2022-09-02T02:06:48.808Z,62.04
2022-09-02T02:09:55.924Z,60.42
2022-09-02T02:13:01.427Z,60.41
2022-09-02T02:16:07.498Z,55.13
2022-09-02T02:19:11.263Z,57.00
2022-09-02T02:22:14.384Z,55.91
2022-09-02T02:25:18.131Z,56.48
2022-09-02T02:28:25.302Z,55.93
2022-09-02T02:31:28.600Z,56.09
2022-09-02T02:34:31.426Z,55.74
2022-09-02T02:37:34.762Z,55.56
2022-09-02T02:40:37.753Z,55.31
2022-09-02T02:43:41.195Z,53.93
2022-09-02T02:46:44.325Z,54.19
2022-09-02T02:49:49.991Z,55.20
2022-09-02T02:52:54.958Z,54.70
2022-09-02T02:55:59.579Z,55.69
2022-09-02T02:59:05.753Z,56.33
2022-09-02T03:02:09.661Z,55.85
2022-09-02T03:05:17.940Z,55.90
2022-09-02T03:08:23.227Z,56.90
2022-09-02T03:11:28.085Z,57.17
2022-09-02T03:14:32.550Z,58.26
2022-09-02T03:17:35.413Z,58.91
2022-09-02T03:20:40.668Z,59.10
2022-09-02T03:23:44.322Z,59.84
2022-09-02T03:26:47.709Z,61.19
2022-09-02T03:29:51.444Z,60.43
2022-09-02T03:33:00.448Z,61.35
2022-09-02T03:36:07.409Z,61.65
2022-09-02T03:39:12.253Z,61.78
2022-09-02T03:42:19.292Z,62.27
2022-09-02T03:45:24.074Z,64.26
2022-09-02T03:48:26.849Z,62.53
2022-09-02T03:51:30.429Z,63.60
2022-09-02T03:54:33.313Z,60.10
2022-09-02T03:57:36.808Z,61.02
2022-09-02T04:00:39.631Z,58.90
2022-09-02T04:03:43.462Z,57.39
2022-09-02T04:06:47.195Z,55.68
2022-09-02T04:09:51.111Z,55.80
2022-09-02T04:12:54.205Z,54.13
2022-09-02T04:16:01.853Z,53.26
2022-09-02T04:19:06.605Z,52.62
2022-09-02T04:22:10.140Z,53.08
2022-09-02T04:25:13.877Z,53.75
2022-09-02T04:28:17.306Z,52.21
2022-09-02T04:31:22.259Z,51.29
2022-09-02T04:34:26.082Z,51.63
2022-09-02T04:37:28.988Z,48.76
2022-09-02T04:40:33.143Z,50.43
2022-09-02T04:43:36.165Z,48.85
2022-09-02T04:46:39.460Z,49.82
2022-09-02T04:49:43.376Z,49.45
2022-09-02T04:52:46.785Z,49.25
2022-09-02T04:55:49.792Z,49.30
2022-09-02T04:58:53.482Z,50.18
2022-09-02T05:01:56.753Z,49.86
2022-09-02T05:05:01.150Z,50.14
2022-09-02T05:08:05.299Z,50.21
2022-09-02T05:11:10.448Z,50.21
2022-09-02T05:14:13.668Z,49.98
2022-09-02T05:17:17.553Z,48.12
2022-09-02T05:20:20.834Z,48.71
2022-09-02T05:23:24.666Z,49.08
2022-09-02T05:26:28.191Z,50.54
2022-09-02T05:29:32.862Z,52.90
2022-09-02T05:32:37.948Z,54.86
2022-09-02T05:35:45.406Z,56.63
2022-09-02T05:38:51.021Z,57.11
2022-09-02T05:41:54.527Z,57.42
2022-09-02T05:44:58.763Z,59.88
2022-09-02T05:48:23.493Z,59.82
2022-09-02T05:51:26.439Z,60.54
2022-09-02T05:54:33.253Z,58.96
2022-09-02T05:57:37.252Z,60.86
2022-09-02T06:00:40.612Z,61.32
2022-09-02T06:03:43.881Z,60.60
2022-09-02T06:06:47.541Z,60.99
2022-09-02T06:09:51.321Z,59.92
2022-09-02T06:12:54.743Z,59.02
2022-09-02T06:15:58.336Z,60.52
2022-09-02T06:19:04.127Z,57.89
2022-09-02T06:22:07.929Z,56.83
2022-09-02T06:25:14.570Z,55.66
2022-09-02T06:28:17.645Z,56.35
2022-09-02T06:31:23.236Z,55.64
2022-09-02T06:34:27.613Z,54.70
2022-09-02T06:37:30.705Z,55.29
2022-09-02T06:40:34.809Z,57.09
2022-09-02T06:43:42.758Z,57.72
2022-09-02T06:46:54.133Z,57.34
2022-09-02T06:49:58.274Z,57.14
2022-09-02T06:53:01.724Z,56.95
2022-09-02T06:56:08.258Z,57.31
2022-09-02T06:59:11.353Z,58.11
2022-09-02T07:05:25.157Z,56.30
2022-09-02T07:08:27.933Z,56.16
2022-09-02T07:11:31.235Z,57.84
2022-09-02T07:14:43.391Z,56.57
2022-09-02T07:17:46.628Z,55.70
2022-09-02T07:20:50.197Z,56.41
2022-09-02T07:23:53.830Z,54.50
2022-09-02T07:26:56.896Z,55.32
2022-09-02T07:30:01.550Z,54.10
2022-09-02T07:33:06.202Z,54.39
2022-09-02T07:36:12.253Z,53.50
2022-09-02T07:39:17.212Z,52.21
2022-09-02T07:42:20.813Z,52.31
2022-09-02T07:45:24.594Z,49.29
2022-09-02T07:48:30.594Z,45.64
2022-09-02T07:51:34.694Z,42.82
2022-09-02T07:54:38.161Z,41.57
2022-09-02T07:57:40.794Z,39.57
2022-09-02T08:00:45.040Z,38.72
2022-09-02T08:03:49.626Z,37.03
2022-09-02T08:06:54.465Z,35.15
2022-09-02T08:10:00.990Z,35.38
2022-09-02T08:13:06.140Z,34.85
2022-09-02T08:16:09.457Z,35.37
2022-09-02T08:19:13.108Z,33.34
2022-09-02T08:22:16.053Z,34.33
2022-09-02T08:25:18.936Z,36.89
2022-09-02T08:28:22.048Z,35.34
2022-09-02T08:31:24.777Z,33.53
2022-09-02T08:34:28.583Z,34.49
2022-09-02T08:37:33.079Z,34.94
2022-09-02T08:40:43.945Z,34.45
2022-09-02T08:43:47.303Z,33.35
2022-09-02T08:46:59.439Z,32.01
2022-09-02T08:50:10.762Z,30.64
2022-09-02T08:53:25.963Z,29.89
2022-09-02T08:56:28.964Z,30.30
2022-09-02T08:59:32.251Z,30.25
2022-09-02T09:02:46.701Z,29.93
2022-09-02T09:05:52.746Z,30.43
2022-09-02T09:09:10.438Z,30.91
2022-09-02T09:12:31.658Z,30.33
2022-09-02T09:15:46.263Z,29.68
2022-09-02T09:19:03.818Z,28.39
2022-09-02T09:22:14.568Z,29.48
2022-09-02T09:25:18.931Z,30.14
2022-09-02T09:28:21.655Z,27.52
2022-09-02T09:31:32.651Z,27.30
2022-09-02T09:34:53.569Z,27.39
2022-09-02T09:37:57.029Z,26.13
2022-09-02T09:41:20.606Z,28.85
2022-09-02T09:44:48.714Z,28.35
2022-09-02T09:48:30.019Z,28.53
2022-09-02T09:51:49.795Z,28.21
2022-09-02T09:55:24.705Z,28.15
2022-09-02T09:58:40.704Z,30.69
2022-09-02T10:01:51.874Z,28.98
2022-09-02T10:05:17.701Z,28.26
2022-09-02T10:08:27.004Z,26.58
2022-09-02T10:11:35.784Z,28.45
2022-09-02T10:14:49.796Z,28.55
2022-09-02T10:18:00.597Z,28.14
2022-09-02T10:21:33.811Z,28.52
2022-09-02T10:25:09.990Z,27.29
2022-09-02T10:28:37.396Z,25.61
2022-09-02T10:32:07.518Z,26.10
2022-09-02T10:35:21.752Z,25.43
2022-09-02T10:38:33.265Z,25.40
2022-09-02T10:41:47.621Z,26.16
2022-09-02T10:45:18.082Z,25.51
2022-09-02T10:49:02.407Z,25.75
2022-09-02T10:52:23.570Z,24.72
2022-09-02T10:55:41.964Z,26.69
2022-09-02T10:58:51.207Z,28.02
2022-09-02T11:01:59.675Z,27.56
2022-09-02T11:05:12.890Z,27.64
2022-09-02T11:08:27.278Z,28.60
2022-09-02T11:11:53.381Z,29.93
2022-09-02T11:15:19.713Z,29.86
2022-09-02T11:18:44.917Z,29.03
2022-09-02T11:21:59.600Z,25.55
2022-09-02T11:25:28.387Z,26.36
2022-09-02T11:29:00.030Z,25.68
2022-09-02T11:32:09.371Z,24.74
2022-09-02T11:35:20.729Z,24.66
2022-09-02T11:38:47.866Z,24.22
2022-09-02T11:41:54.632Z,24.36
2022-09-02T11:45:24.980Z,23.98
2022-09-02T11:48:53.662Z,21.37
2022-09-02T11:55:54.208Z,23.90
2022-09-02T11:58:57.228Z,23.55
2022-09-02T12:02:00.554Z,23.30
2022-09-02T12:05:32.265Z,24.60
2022-09-02T12:08:35.877Z,23.63
2022-09-02T12:11:42.067Z,24.40
2022-09-02T12:14:47.876Z,24.64
2022-09-02T12:17:51.100Z,23.65
2022-09-02T12:21:18.974Z,24.53
2022-09-02T12:24:25.621Z,24.33
2022-09-02T12:27:40.136Z,25.10
2022-09-02T12:30:55.565Z,24.83
2022-09-02T12:34:03.920Z,23.94
2022-09-02T12:37:09.622Z,25.75
2022-09-02T12:40:20.227Z,25.09
2022-09-02T12:43:31.279Z,24.20
2022-09-02T12:46:43.243Z,25.51
2022-09-02T12:50:07.815Z,27.03
2022-09-02T12:53:23.568Z,26.91
2022-09-02T12:56:26.678Z,29.19
2022-09-02T12:59:35.510Z,28.33
2022-09-02T13:03:31.093Z,29.37
2022-09-02T13:06:58.545Z,28.90
2022-09-02T13:10:01.803Z,28.38
2022-09-02T13:13:36.854Z,28.73
2022-09-02T13:17:09.063Z,29.11
2022-09-02T13:20:41.706Z,28.76
2022-09-02T13:24:15.451Z,27.71
2022-09-02T13:27:56.066Z,27.66
2022-09-02T13:31:24.845Z,29.74
2022-09-02T13:34:29.774Z,28.62
2022-09-02T13:37:33.000Z,29.56
2022-09-02T13:40:38.478Z,28.59
2022-09-02T13:43:41.473Z,29.46
2022-09-02T13:46:49.058Z,28.89
2022-09-02T13:49:54.113Z,30.04
2022-09-02T13:56:33.874Z,29.84
2022-09-02T13:59:47.660Z,29.77
2022-09-02T14:03:09.520Z,28.48
2022-09-02T14:06:12.845Z,28.02
2022-09-02T14:09:22.443Z,27.90
2022-09-02T14:12:27.759Z,28.11
2022-09-02T14:15:32.718Z,28.98
2022-09-02T14:18:35.785Z,29.52
2022-09-02T14:21:46.357Z,29.43
2022-09-02T14:24:49.441Z,29.43
2022-09-02T14:27:57.589Z,29.29
2022-09-02T14:31:05.205Z,30.30
2022-09-02T14:34:45.087Z,30.58
2022-09-02T14:37:53.246Z,30.43
2022-09-02T14:41:25.180Z,31.19
2022-09-02T14:44:36.494Z,32.40
2022-09-02T14:47:40.832Z,34.01
2022-09-02T14:50:46.056Z,34.46
2022-09-02T14:53:48.809Z,35.25
2022-09-02T14:56:53.529Z,35.08
2022-09-02T14:59:58.002Z,35.05
2022-09-02T15:03:01.041Z,36.32
2022-09-02T15:06:04.774Z,37.42
2022-09-02T15:09:08.226Z,37.32
2022-09-02T15:12:12.205Z,37.79
2022-09-02T15:15:16.404Z,37.63
2022-09-02T15:18:19.343Z,37.80
2022-09-02T15:21:22.575Z,38.89
2022-09-02T15:24:26.659Z,38.84
2022-09-02T15:27:29.728Z,39.29
2022-09-02T15:30:34.916Z,39.36
2022-09-02T15:33:41.162Z,40.06
2022-09-02T15:36:44.152Z,40.37
2022-09-02T15:39:47.219Z,41.59
2022-09-02T15:42:50.034Z,42.21
2022-09-02T15:45:53.079Z,42.78
2022-09-02T15:49:02.479Z,44.43
2022-09-02T15:52:06.324Z,45.34
2022-09-02T15:55:09.122Z,44.63
2022-09-02T15:58:19.576Z,45.41
2022-09-02T16:01:25.170Z,45.54
2022-09-02T16:04:28.390Z,46.77
2022-09-02T16:07:31.389Z,46.42
2022-09-02T16:10:36.994Z,47.51
2022-09-02T16:13:39.751Z,48.13
2022-09-02T16:16:43.278Z,48.09
2022-09-02T16:19:46.714Z,47.49
2022-09-02T16:22:49.644Z,47.35
2022-09-02T16:26:15.141Z,47.66
2022-09-02T16:29:19.659Z,49.26
2022-09-02T16:32:27.663Z,49.60
2022-09-02T16:35:30.938Z,49.18
2022-09-02T16:38:34.793Z,50.14
2022-09-02T16:41:44.215Z,50.61
2022-09-02T16:44:46.808Z,49.32
2022-09-02T16:47:54.699Z,49.68
2022-09-02T16:51:03.415Z,49.71
2022-09-02T16:54:08.390Z,50.14
2022-09-02T16:57:11.156Z,50.22
2022-09-02T17:00:16.388Z,50.04
2022-09-02T17:03:19.181Z,50.62
2022-09-02T17:06:22.453Z,50.64
2022-09-02T17:09:25.108Z,50.61
2022-09-02T17:12:28.163Z,52.68
2022-09-02T17:15:31.092Z,52.62
2022-09-02T17:18:34.878Z,51.96
2022-09-02T17:21:48.267Z,52.40
2022-09-02T17:24:53.769Z,53.13
2022-09-02T17:27:56.568Z,52.43
2022-09-02T17:30:59.933Z,53.33
2022-09-02T17:34:05.797Z,53.41
2022-09-02T17:37:08.914Z,54.51
2022-09-02T17:40:31.563Z,55.22
2022-09-02T17:43:38.500Z,55.50
2022-09-02T17:46:42.139Z,55.21
2022-09-02T17:49:45.280Z,56.45
2022-09-02T17:52:48.063Z,56.23
2022-09-02T17:55:56.428Z,56.18
2022-09-02T17:59:13.693Z,57.17
2022-09-02T18:02:40.903Z,57.37
2022-09-02T18:06:07.340Z,57.41
2022-09-02T18:09:10.006Z,54.33
2022-09-02T18:12:14.423Z,54.69
2022-09-02T18:15:19.123Z,55.33
2022-09-02T18:18:23.083Z,57.69
2022-09-02T18:22:02.104Z,57.64
2022-09-02T18:25:23.910Z,57.53
2022-09-02T18:28:56.929Z,57.46
2022-09-02T18:32:17.240Z,58.35
2022-09-02T18:35:41.537Z,59.81
2022-09-02T18:39:27.649Z,60.66
2022-09-02T18:42:46.563Z,59.60
2022-09-02T18:45:50.667Z,59.34
2022-09-02T18:48:59.923Z,59.10
2022-09-02T18:52:08.330Z,58.88
2022-09-02T18:55:16.230Z,58.81
2022-09-02T18:58:27.491Z,58.78
2022-09-02T19:01:35.756Z,59.68
2022-09-02T19:04:41.436Z,59.98
2022-09-02T19:08:05.229Z,59.89
2022-09-02T19:11:16.573Z,61.07
2022-09-02T19:14:30.504Z,62.29
2022-09-02T19:17:34.994Z,62.37
2022-09-02T19:20:40.631Z,62.98
2022-09-02T19:23:47.533Z,64.25
2022-09-02T19:26:56.797Z,64.08
2022-09-02T19:30:07.043Z,64.28
2022-09-02T19:33:14.091Z,64.67
2022-09-02T19:36:19.316Z,64.91
2022-09-02T19:39:23.474Z,65.86
2022-09-02T19:42:27.239Z,65.69
2022-09-02T19:45:32.216Z,66.22
2022-09-02T19:48:36.175Z,66.17
2022-09-02T19:51:38.798Z,66.79
2022-09-02T19:54:43.203Z,66.77
2022-09-02T19:57:46.189Z,66.63
2022-09-02T20:00:49.822Z,66.77
2022-09-02T20:03:53.753Z,66.67
2022-09-02T20:06:57.968Z,66.17
2022-09-02T20:10:01.220Z,65.71
2022-09-02T20:13:05.671Z,65.51
2022-09-02T20:16:16.896Z,65.36
2022-09-02T20:19:19.823Z,65.50
2022-09-02T20:22:23.514Z,65.58
2022-09-02T20:25:40.779Z,65.77
2022-09-02T20:29:08.950Z,65.56
2022-09-02T20:32:14.432Z,65.64
2022-09-02T20:35:34.221Z,65.79
2022-09-02T20:39:01.327Z,66.01
2022-09-02T20:42:26.083Z,66.05
2022-09-02T20:45:43.051Z,66.44
2022-09-02T20:48:46.097Z,66.44
2022-09-02T20:52:04.830Z,66.42
2022-09-02T20:55:20.511Z,66.80
2022-09-02T20:58:51.051Z,67.29
2022-09-02T21:01:56.270Z,67.12
2022-09-02T21:05:12.216Z,67.70
2022-09-02T21:08:40.208Z,68.18
2022-09-02T21:11:54.529Z,68.13
2022-09-02T21:15:18.457Z,67.99
2022-09-02T21:18:30.207Z,67.49
2022-09-02T21:21:56.026Z,67.94
2022-09-02T21:25:38.434Z,68.28
2022-09-02T21:28:46.909Z,67.94
2022-09-02T21:32:07.577Z,68.66
2022-09-02T21:35:14.400Z,69.03
2022-09-02T21:38:24.743Z,69.54
2022-09-02T21:41:45.501Z,69.13
2022-09-02T21:45:26.293Z,70.05
2022-09-02T21:48:53.920Z,70.82
2022-09-02T21:52:13.947Z,70.63
2022-09-02T21:55:53.746Z,71.59
2022-09-02T21:59:21.031Z,71.98
2022-09-02T22:02:33.531Z,72.08
2022-09-02T22:05:56.675Z,71.74
2022-09-02T22:09:17.258Z,72.25
2022-09-02T22:12:23.149Z,71.92
2022-09-02T22:15:58.017Z,72.83
2022-09-02T22:19:08.592Z,72.88
2022-09-02T22:22:24.738Z,73.50
2022-09-02T22:25:29.699Z,73.35
2022-09-02T22:28:41.179Z,73.07
2022-09-02T22:31:46.147Z,73.13
2022-09-02T22:35:09.984Z,73.09
2022-09-02T22:38:27.730Z,72.99
2022-09-02T22:41:33.369Z,72.88
2022-09-02T22:45:05.804Z,73.50
2022-09-02T22:48:42.421Z,73.64
2022-09-02T22:52:11.133Z,74.40
2022-09-02T22:55:15.886Z,74.69
2022-09-02T22:58:41.586Z,73.66
2022-09-02T23:01:54.807Z,74.37
2022-09-02T23:05:37.661Z,75.09
2022-09-02T23:08:44.259Z,75.66
2022-09-02T23:12:29.452Z,75.45
2022-09-02T23:15:57.491Z,75.32
2022-09-02T23:19:26.308Z,76.12
2022-09-02T23:23:01.030Z,77.46
2022-09-02T23:26:33.336Z,77.14
2022-09-02T23:29:37.918Z,76.84
2022-09-02T23:32:52.253Z,77.69
2022-09-02T23:36:29.197Z,78.03
2022-09-02T23:39:55.294Z,78.11
2022-09-02T23:42:59.612Z,77.92
2022-09-02T23:46:25.446Z,78.07
2022-09-02T23:49:38.224Z,78.33
2022-09-02T23:52:44.511Z,78.14
2022-09-02T23:55:56.211Z,78.40
2022-09-02T23:59:19.418Z,79.49
